sensor_id;sensor_type;location;lat;lon;timestamp;P1;durP1;ratioP1;P2;durP2;ratioP2
58528;SDS011;44322;52.968;5.816;2023-12-20T00:01:29;17.80;;;3.17;;
58528;SDS011;44322;52.968;5.816;2023-12-20T00:03:54;21.50;;;4.88;;
58528;SDS011;44322;52.968;5.816;2023-12-20T00:06:20;20.15;;;3.63;;
58528;SDS011;44322;52.968;5.816;2023-12-20T00:08:45;13.85;;;3.72;;
58528;SDS011;44322;52.968;5.816;2023-12-20T00:11:11;21.23;;;3.72;;
58528;SDS011;44322;52.968;5.816;2023-12-20T00:13:37;18.13;;;4.13;;
58528;SDS011;44322;52.968;5.816;2023-12-20T00:16:03;17.88;;;3.70;;
58528;SDS011;44322;52.968;5.816;2023-12-20T00:18:28;17.30;;;3.35;;
58528;SDS011;44322;52.968;5.816;2023-12-20T00:20:54;15.93;;;3.75;;
58528;SDS011;44322;52.968;5.816;2023-12-20T00:23:20;18.85;;;4.00;;
58528;SDS011;44322;52.968;5.816;2023-12-20T00:25:45;22.45;;;3.88;;
58528;SDS011;44322;52.968;5.816;2023-12-20T00:28:11;19.58;;;4.07;;
58528;SDS011;44322;52.968;5.816;2023-12-20T00:30:36;20.85;;;4.85;;
58528;SDS011;44322;52.968;5.816;2023-12-20T00:33:02;17.15;;;4.13;;
58528;SDS011;44322;52.968;5.816;2023-12-20T00:35:28;20.60;;;3.95;;
58528;SDS011;44322;52.968;5.816;2023-12-20T00:37:53;18.45;;;3.95;;
58528;SDS011;44322;52.968;5.816;2023-12-20T00:40:19;15.05;;;3.65;;
58528;SDS011;44322;52.968;5.816;2023-12-20T00:42:46;18.75;;;4.05;;
58528;SDS011;44322;52.968;5.816;2023-12-20T00:45:12;20.42;;;4.20;;
58528;SDS011;44322;52.968;5.816;2023-12-20T00:47:38;15.98;;;3.95;;
58528;SDS011;44322;52.968;5.816;2023-12-20T00:50:03;21.83;;;4.05;;
58528;SDS011;44322;52.968;5.816;2023-12-20T00:52:29;16.20;;;3.30;;
58528;SDS011;44322;52.968;5.816;2023-12-20T00:54:55;24.70;;;4.45;;
58528;SDS011;44322;52.968;5.816;2023-12-20T00:57:20;22.25;;;4.15;;
58528;SDS011;44322;52.968;5.816;2023-12-20T00:59:46;16.58;;;3.75;;
58528;SDS011;44322;52.968;5.816;2023-12-20T01:02:12;22.40;;;3.55;;
58528;SDS011;44322;52.968;5.816;2023-12-20T01:04:37;23.27;;;4.80;;
58528;SDS011;44322;52.968;5.816;2023-12-20T01:07:03;19.30;;;4.53;;
58528;SDS011;44322;52.968;5.816;2023-12-20T01:09:29;21.85;;;4.38;;
58528;SDS011;44322;52.968;5.816;2023-12-20T01:11:54;16.95;;;4.00;;
58528;SDS011;44322;52.968;5.816;2023-12-20T01:14:20;22.85;;;4.80;;
58528;SDS011;44322;52.968;5.816;2023-12-20T01:16:47;22.60;;;5.03;;
58528;SDS011;44322;52.968;5.816;2023-12-20T01:19:13;20.75;;;4.63;;
58528;SDS011;44322;52.968;5.816;2023-12-20T01:21:41;19.98;;;5.05;;
58528;SDS011;44322;52.968;5.816;2023-12-20T01:24:07;17.85;;;4.13;;
58528;SDS011;44322;52.968;5.816;2023-12-20T01:26:33;22.70;;;4.78;;
58528;SDS011;44322;52.968;5.816;2023-12-20T01:28:58;24.48;;;4.57;;
58528;SDS011;44322;52.968;5.816;2023-12-20T01:31:24;20.02;;;4.85;;
58528;SDS011;44322;52.968;5.816;2023-12-20T01:33:49;22.95;;;4.22;;
58528;SDS011;44322;52.968;5.816;2023-12-20T01:36:15;20.70;;;4.35;;
58528;SDS011;44322;52.968;5.816;2023-12-20T01:38:41;25.42;;;5.03;;
58528;SDS011;44322;52.968;5.816;2023-12-20T01:41:06;22.88;;;4.50;;
58528;SDS011;44322;52.968;5.816;2023-12-20T01:43:32;19.33;;;4.47;;
58528;SDS011;44322;52.968;5.816;2023-12-20T01:45:58;24.65;;;4.85;;
58528;SDS011;44322;52.968;5.816;2023-12-20T01:48:24;20.38;;;4.28;;
58528;SDS011;44322;52.968;5.816;2023-12-20T01:50:50;17.55;;;4.15;;
58528;SDS011;44322;52.968;5.816;2023-12-20T01:53:16;24.75;;;4.88;;
58528;SDS011;44322;52.968;5.816;2023-12-20T01:55:42;23.70;;;4.97;;
58528;SDS011;44322;52.968;5.816;2023-12-20T01:58:08;21.45;;;4.82;;
58528;SDS011;44322;52.968;5.816;2023-12-20T02:00:35;24.08;;;5.07;;
58528;SDS011;44322;52.968;5.816;2023-12-20T02:03:02;22.80;;;4.82;;
58528;SDS011;44322;52.968;5.816;2023-12-20T02:05:32;19.00;;;4.35;;
58528;SDS011;44322;52.968;5.816;2023-12-20T02:07:58;21.95;;;4.60;;
58528;SDS011;44322;52.968;5.816;2023-12-20T02:10:24;23.98;;;5.28;;
58528;SDS011;44322;52.968;5.816;2023-12-20T02:12:50;22.55;;;5.20;;
58528;SDS011;44322;52.968;5.816;2023-12-20T02:15:16;21.85;;;4.72;;
58528;SDS011;44322;52.968;5.816;2023-12-20T02:17:41;22.52;;;4.60;;
58528;SDS011;44322;52.968;5.816;2023-12-20T02:20:08;23.40;;;5.28;;
58528;SDS011;44322;52.968;5.816;2023-12-20T02:22:34;26.95;;;5.03;;
58528;SDS011;44322;52.968;5.816;2023-12-20T02:24:59;22.70;;;5.40;;
58528;SDS011;44322;52.968;5.816;2023-12-20T02:27:25;22.55;;;5.05;;
58528;SDS011;44322;52.968;5.816;2023-12-20T02:29:50;29.45;;;5.72;;
58528;SDS011;44322;52.968;5.816;2023-12-20T02:32:20;24.83;;;5.30;;
58528;SDS011;44322;52.968;5.816;2023-12-20T02:34:49;27.20;;;5.53;;
58528;SDS011;44322;52.968;5.816;2023-12-20T02:37:15;22.83;;;4.88;;
58528;SDS011;44322;52.968;5.816;2023-12-20T02:39:40;19.65;;;5.38;;
58528;SDS011;44322;52.968;5.816;2023-12-20T02:42:06;27.88;;;5.53;;
58528;SDS011;44322;52.968;5.816;2023-12-20T02:44:32;23.40;;;5.30;;
58528;SDS011;44322;52.968;5.816;2023-12-20T02:46:57;24.38;;;5.40;;
58528;SDS011;44322;52.968;5.816;2023-12-20T02:49:23;21.77;;;5.15;;
58528;SDS011;44322;52.968;5.816;2023-12-20T02:51:48;23.02;;;5.45;;
58528;SDS011;44322;52.968;5.816;2023-12-20T02:54:14;21.98;;;5.22;;
58528;SDS011;44322;52.968;5.816;2023-12-20T02:56:40;19.88;;;4.78;;
58528;SDS011;44322;52.968;5.816;2023-12-20T02:59:05;24.45;;;4.80;;
58528;SDS011;44322;52.968;5.816;2023-12-20T03:01:32;21.05;;;5.30;;
58528;SDS011;44322;52.968;5.816;2023-12-20T03:03:57;25.27;;;5.78;;
58528;SDS011;44322;52.968;5.816;2023-12-20T03:06:23;24.52;;;5.35;;
58528;SDS011;44322;52.968;5.816;2023-12-20T03:08:49;21.17;;;5.22;;
58528;SDS011;44322;52.968;5.816;2023-12-20T03:11:14;24.63;;;5.95;;
58528;SDS011;44322;52.968;5.816;2023-12-20T03:13:40;23.58;;;5.38;;
58528;SDS011;44322;52.968;5.816;2023-12-20T03:16:09;23.80;;;5.60;;
58528;SDS011;44322;52.968;5.816;2023-12-20T03:18:35;21.83;;;4.93;;
58528;SDS011;44322;52.968;5.816;2023-12-20T03:21:01;22.13;;;5.20;;
58528;SDS011;44322;52.968;5.816;2023-12-20T03:25:56;21.80;;;4.82;;
58528;SDS011;44322;52.968;5.816;2023-12-20T03:28:22;24.20;;;4.88;;
58528;SDS011;44322;52.968;5.816;2023-12-20T03:30:48;27.55;;;5.40;;
58528;SDS011;44322;52.968;5.816;2023-12-20T03:33:14;26.20;;;5.47;;
58528;SDS011;44322;52.968;5.816;2023-12-20T03:35:39;30.27;;;5.55;;
58528;SDS011;44322;52.968;5.816;2023-12-20T03:38:05;25.98;;;5.38;;
58528;SDS011;44322;52.968;5.816;2023-12-20T03:40:30;24.23;;;5.65;;
58528;SDS011;44322;52.968;5.816;2023-12-20T03:42:56;31.55;;;5.70;;
58528;SDS011;44322;52.968;5.816;2023-12-20T03:45:22;25.02;;;6.03;;
58528;SDS011;44322;52.968;5.816;2023-12-20T03:47:47;25.48;;;5.20;;
58528;SDS011;44322;52.968;5.816;2023-12-20T03:50:13;27.85;;;5.43;;
58528;SDS011;44322;52.968;5.816;2023-12-20T03:52:39;27.40;;;6.35;;
58528;SDS011;44322;52.968;5.816;2023-12-20T03:55:05;23.45;;;4.88;;
58528;SDS011;44322;52.968;5.816;2023-12-20T03:57:31;22.13;;;4.72;;
58528;SDS011;44322;52.968;5.816;2023-12-20T03:59:56;24.17;;;5.32;;
58528;SDS011;44322;52.968;5.816;2023-12-20T04:02:22;23.88;;;5.15;;
58528;SDS011;44322;52.968;5.816;2023-12-20T04:04:47;22.95;;;5.00;;
58528;SDS011;44322;52.968;5.816;2023-12-20T04:07:13;25.73;;;5.53;;
58528;SDS011;44322;52.968;5.816;2023-12-20T04:09:40;23.40;;;5.50;;
58528;SDS011;44322;52.968;5.816;2023-12-20T04:12:06;25.33;;;5.25;;
58528;SDS011;44322;52.968;5.816;2023-12-20T04:14:32;20.67;;;4.72;;
58528;SDS011;44322;52.968;5.816;2023-12-20T04:16:57;22.70;;;4.93;;
58528;SDS011;44322;52.968;5.816;2023-12-20T04:19:23;20.83;;;5.13;;
58528;SDS011;44322;52.968;5.816;2023-12-20T04:21:48;26.75;;;5.45;;
58528;SDS011;44322;52.968;5.816;2023-12-20T04:24:14;21.92;;;5.03;;
58528;SDS011;44322;52.968;5.816;2023-12-20T04:26:40;27.25;;;5.43;;
58528;SDS011;44322;52.968;5.816;2023-12-20T04:29:05;22.27;;;5.60;;
58528;SDS011;44322;52.968;5.816;2023-12-20T04:31:31;24.60;;;5.45;;
58528;SDS011;44322;52.968;5.816;2023-12-20T04:33:56;22.50;;;5.00;;
58528;SDS011;44322;52.968;5.816;2023-12-20T04:36:22;20.08;;;5.05;;
58528;SDS011;44322;52.968;5.816;2023-12-20T04:38:48;24.52;;;5.15;;
58528;SDS011;44322;52.968;5.816;2023-12-20T04:41:14;22.77;;;5.35;;
58528;SDS011;44322;52.968;5.816;2023-12-20T04:43:44;23.15;;;4.43;;
58528;SDS011;44322;52.968;5.816;2023-12-20T04:46:09;22.02;;;4.38;;
58528;SDS011;44322;52.968;5.816;2023-12-20T04:48:35;25.33;;;5.55;;
58528;SDS011;44322;52.968;5.816;2023-12-20T04:51:00;28.58;;;5.57;;
58528;SDS011;44322;52.968;5.816;2023-12-20T04:53:26;27.30;;;5.45;;
58528;SDS011;44322;52.968;5.816;2023-12-20T04:55:52;25.00;;;5.43;;
58528;SDS011;44322;52.968;5.816;2023-12-20T04:58:18;19.27;;;5.32;;
58528;SDS011;44322;52.968;5.816;2023-12-20T05:00:44;26.13;;;5.55;;
58528;SDS011;44322;52.968;5.816;2023-12-20T05:03:10;22.45;;;5.72;;
58528;SDS011;44322;52.968;5.816;2023-12-20T05:05:35;24.52;;;5.13;;
58528;SDS011;44322;52.968;5.816;2023-12-20T05:08:01;25.20;;;5.93;;
58528;SDS011;44322;52.968;5.816;2023-12-20T05:10:27;26.10;;;6.35;;
58528;SDS011;44322;52.968;5.816;2023-12-20T05:12:53;23.67;;;5.13;;
58528;SDS011;44322;52.968;5.816;2023-12-20T05:15:18;26.38;;;5.45;;
58528;SDS011;44322;52.968;5.816;2023-12-20T05:17:44;28.30;;;6.50;;
58528;SDS011;44322;52.968;5.816;2023-12-20T05:20:09;29.85;;;6.13;;
58528;SDS011;44322;52.968;5.816;2023-12-20T05:22:35;21.20;;;5.43;;
58528;SDS011;44322;52.968;5.816;2023-12-20T05:25:01;18.70;;;4.85;;
58528;SDS011;44322;52.968;5.816;2023-12-20T05:27:27;25.08;;;5.55;;
58528;SDS011;44322;52.968;5.816;2023-12-20T05:29:52;23.88;;;5.15;;
58528;SDS011;44322;52.968;5.816;2023-12-20T05:32:18;30.90;;;6.57;;
58528;SDS011;44322;52.968;5.816;2023-12-20T05:34:44;30.20;;;6.30;;
58528;SDS011;44322;52.968;5.816;2023-12-20T05:37:09;28.17;;;6.20;;
58528;SDS011;44322;52.968;5.816;2023-12-20T05:39:35;23.48;;;5.97;;
58528;SDS011;44322;52.968;5.816;2023-12-20T05:42:00;27.17;;;5.72;;
58528;SDS011;44322;52.968;5.816;2023-12-20T05:44:26;24.27;;;4.88;;
58528;SDS011;44322;52.968;5.816;2023-12-20T05:46:51;24.90;;;5.40;;
58528;SDS011;44322;52.968;5.816;2023-12-20T05:49:17;27.90;;;6.10;;
58528;SDS011;44322;52.968;5.816;2023-12-20T05:51:43;25.55;;;4.95;;
58528;SDS011;44322;52.968;5.816;2023-12-20T05:54:09;24.75;;;5.60;;
58528;SDS011;44322;52.968;5.816;2023-12-20T05:56:34;25.83;;;5.60;;
58528;SDS011;44322;52.968;5.816;2023-12-20T05:59:00;22.30;;;5.15;;
58528;SDS011;44322;52.968;5.816;2023-12-20T06:01:26;22.35;;;4.80;;
58528;SDS011;44322;52.968;5.816;2023-12-20T06:03:51;27.65;;;5.30;;
58528;SDS011;44322;52.968;5.816;2023-12-20T06:06:17;23.25;;;5.70;;
58528;SDS011;44322;52.968;5.816;2023-12-20T06:08:43;24.58;;;5.68;;
58528;SDS011;44322;52.968;5.816;2023-12-20T06:11:09;24.35;;;5.40;;
58528;SDS011;44322;52.968;5.816;2023-12-20T06:13:34;24.45;;;5.32;;
58528;SDS011;44322;52.968;5.816;2023-12-20T06:16:00;23.77;;;5.95;;
58528;SDS011;44322;52.968;5.816;2023-12-20T06:18:26;22.27;;;6.10;;
58528;SDS011;44322;52.968;5.816;2023-12-20T06:20:52;28.92;;;5.22;;
58528;SDS011;44322;52.968;5.816;2023-12-20T06:23:20;26.02;;;5.43;;
58528;SDS011;44322;52.968;5.816;2023-12-20T06:25:46;23.58;;;6.10;;
58528;SDS011;44322;52.968;5.816;2023-12-20T06:28:11;25.23;;;6.25;;
58528;SDS011;44322;52.968;5.816;2023-12-20T06:30:39;29.27;;;5.72;;
58528;SDS011;44322;52.968;5.816;2023-12-20T06:33:05;21.42;;;4.85;;
58528;SDS011;44322;52.968;5.816;2023-12-20T06:35:32;25.75;;;6.03;;
58528;SDS011;44322;52.968;5.816;2023-12-20T06:37:57;25.25;;;5.78;;
58528;SDS011;44322;52.968;5.816;2023-12-20T06:40:23;20.55;;;5.90;;
58528;SDS011;44322;52.968;5.816;2023-12-20T06:42:49;25.63;;;5.68;;
58528;SDS011;44322;52.968;5.816;2023-12-20T06:45:14;19.58;;;5.00;;
58528;SDS011;44322;52.968;5.816;2023-12-20T06:47:40;26.27;;;5.60;;
58528;SDS011;44322;52.968;5.816;2023-12-20T06:50:05;24.70;;;5.45;;
58528;SDS011;44322;52.968;5.816;2023-12-20T06:52:33;27.10;;;6.20;;
58528;SDS011;44322;52.968;5.816;2023-12-20T06:55:00;25.48;;;5.88;;
58528;SDS011;44322;52.968;5.816;2023-12-20T06:57:26;23.55;;;5.93;;
58528;SDS011;44322;52.968;5.816;2023-12-20T06:59:52;23.77;;;6.38;;
58528;SDS011;44322;52.968;5.816;2023-12-20T07:02:18;29.23;;;5.97;;
58528;SDS011;44322;52.968;5.816;2023-12-20T07:04:43;28.90;;;5.72;;
58528;SDS011;44322;52.968;5.816;2023-12-20T07:07:09;24.85;;;5.82;;
58528;SDS011;44322;52.968;5.816;2023-12-20T07:09:35;29.05;;;6.15;;
58528;SDS011;44322;52.968;5.816;2023-12-20T07:12:00;26.50;;;5.47;;
58528;SDS011;44322;52.968;5.816;2023-12-20T07:14:26;26.52;;;6.85;;
58528;SDS011;44322;52.968;5.816;2023-12-20T07:16:54;27.95;;;6.53;;
58528;SDS011;44322;52.968;5.816;2023-12-20T07:19:22;27.30;;;6.18;;
58528;SDS011;44322;52.968;5.816;2023-12-20T07:21:48;25.80;;;5.72;;
58528;SDS011;44322;52.968;5.816;2023-12-20T07:24:14;26.30;;;6.13;;
58528;SDS011;44322;52.968;5.816;2023-12-20T07:26:39;22.90;;;5.60;;
58528;SDS011;44322;52.968;5.816;2023-12-20T07:29:05;22.88;;;5.47;;
58528;SDS011;44322;52.968;5.816;2023-12-20T07:31:32;24.75;;;5.70;;
58528;SDS011;44322;52.968;5.816;2023-12-20T07:33:57;29.67;;;6.38;;
58528;SDS011;44322;52.968;5.816;2023-12-20T07:36:23;29.02;;;6.13;;
58528;SDS011;44322;52.968;5.816;2023-12-20T07:38:49;29.30;;;6.13;;
58528;SDS011;44322;52.968;5.816;2023-12-20T07:41:14;18.25;;;4.88;;
58528;SDS011;44322;52.968;5.816;2023-12-20T07:43:41;21.08;;;5.35;;
58528;SDS011;44322;52.968;5.816;2023-12-20T07:46:07;27.02;;;5.78;;
58528;SDS011;44322;52.968;5.816;2023-12-20T07:48:36;25.27;;;5.28;;
58528;SDS011;44322;52.968;5.816;2023-12-20T07:51:03;24.75;;;6.07;;
58528;SDS011;44322;52.968;5.816;2023-12-20T07:53:29;22.63;;;5.05;;
58528;SDS011;44322;52.968;5.816;2023-12-20T07:55:55;23.83;;;5.63;;
58528;SDS011;44322;52.968;5.816;2023-12-20T07:58:20;23.83;;;5.75;;
58528;SDS011;44322;52.968;5.816;2023-12-20T08:00:47;24.98;;;5.35;;
58528;SDS011;44322;52.968;5.816;2023-12-20T08:03:12;23.10;;;5.45;;
58528;SDS011;44322;52.968;5.816;2023-12-20T08:05:38;21.05;;;4.75;;
58528;SDS011;44322;52.968;5.816;2023-12-20T08:08:06;25.52;;;5.55;;
58528;SDS011;44322;52.968;5.816;2023-12-20T08:10:32;23.33;;;5.45;;
58528;SDS011;44322;52.968;5.816;2023-12-20T08:12:58;21.75;;;5.25;;
58528;SDS011;44322;52.968;5.816;2023-12-20T08:15:24;22.55;;;5.55;;
58528;SDS011;44322;52.968;5.816;2023-12-20T08:17:49;25.92;;;5.53;;
58528;SDS011;44322;52.968;5.816;2023-12-20T08:20:18;25.60;;;5.85;;
58528;SDS011;44322;52.968;5.816;2023-12-20T08:22:44;23.83;;;5.43;;
58528;SDS011;44322;52.968;5.816;2023-12-20T08:25:09;29.88;;;5.85;;
58528;SDS011;44322;52.968;5.816;2023-12-20T08:27:41;24.58;;;5.75;;
58528;SDS011;44322;52.968;5.816;2023-12-20T08:30:10;25.33;;;5.53;;
58528;SDS011;44322;52.968;5.816;2023-12-20T08:32:36;20.95;;;5.32;;
58528;SDS011;44322;52.968;5.816;2023-12-20T08:35:01;25.02;;;5.85;;
58528;SDS011;44322;52.968;5.816;2023-12-20T08:37:28;24.85;;;5.47;;
58528;SDS011;44322;52.968;5.816;2023-12-20T08:39:55;18.33;;;4.97;;
58528;SDS011;44322;52.968;5.816;2023-12-20T08:42:21;20.23;;;5.47;;
58528;SDS011;44322;52.968;5.816;2023-12-20T08:44:49;20.50;;;4.57;;
58528;SDS011;44322;52.968;5.816;2023-12-20T08:47:17;24.08;;;5.40;;
58528;SDS011;44322;52.968;5.816;2023-12-20T08:49:43;24.50;;;5.07;;
58528;SDS011;44322;52.968;5.816;2023-12-20T08:52:09;21.65;;;5.07;;
58528;SDS011;44322;52.968;5.816;2023-12-20T08:54:35;23.92;;;5.25;;
58528;SDS011;44322;52.968;5.816;2023-12-20T08:57:01;22.50;;;5.53;;
58528;SDS011;44322;52.968;5.816;2023-12-20T08:59:29;25.05;;;4.88;;
58528;SDS011;44322;52.968;5.816;2023-12-20T09:01:55;25.45;;;5.18;;
58528;SDS011;44322;52.968;5.816;2023-12-20T09:04:21;25.20;;;5.85;;
58528;SDS011;44322;52.968;5.816;2023-12-20T09:06:49;19.23;;;4.78;;
58528;SDS011;44322;52.968;5.816;2023-12-20T09:11:43;24.67;;;5.28;;
58528;SDS011;44322;52.968;5.816;2023-12-20T09:14:11;24.45;;;4.88;;
58528;SDS011;44322;52.968;5.816;2023-12-20T09:16:36;24.23;;;5.25;;
58528;SDS011;44322;52.968;5.816;2023-12-20T09:19:02;23.60;;;5.32;;
58528;SDS011;44322;52.968;5.816;2023-12-20T09:21:28;16.63;;;4.25;;
58528;SDS011;44322;52.968;5.816;2023-12-20T09:23:53;10.27;;;2.72;;
58528;SDS011;44322;52.968;5.816;2023-12-20T09:26:19;10.40;;;2.58;;
58528;SDS011;44322;52.968;5.816;2023-12-20T09:28:46;12.32;;;2.72;;
58528;SDS011;44322;52.968;5.816;2023-12-20T09:31:11;16.85;;;3.83;;
58528;SDS011;44322;52.968;5.816;2023-12-20T09:33:37;16.00;;;4.10;;
58528;SDS011;44322;52.968;5.816;2023-12-20T09:36:03;14.65;;;2.70;;
58528;SDS011;44322;52.968;5.816;2023-12-20T09:38:28;11.82;;;2.65;;
58528;SDS011;44322;52.968;5.816;2023-12-20T09:40:54;11.73;;;2.75;;
58528;SDS011;44322;52.968;5.816;2023-12-20T09:43:20;11.90;;;2.70;;
58528;SDS011;44322;52.968;5.816;2023-12-20T09:45:49;12.13;;;2.60;;
58528;SDS011;44322;52.968;5.816;2023-12-20T09:48:18;14.65;;;2.78;;
58528;SDS011;44322;52.968;5.816;2023-12-20T09:50:44;9.13;;;2.42;;
58528;SDS011;44322;52.968;5.816;2023-12-20T09:53:11;12.77;;;2.90;;
58528;SDS011;44322;52.968;5.816;2023-12-20T09:55:40;14.65;;;2.63;;
58528;SDS011;44322;52.968;5.816;2023-12-20T09:58:06;11.73;;;2.45;;
58528;SDS011;44322;52.968;5.816;2023-12-20T10:00:36;15.30;;;2.75;;
58528;SDS011;44322;52.968;5.816;2023-12-20T10:03:02;13.65;;;3.10;;
58528;SDS011;44322;52.968;5.816;2023-12-20T10:05:29;20.77;;;5.22;;
58528;SDS011;44322;52.968;5.816;2023-12-20T10:07:56;18.45;;;4.32;;
58528;SDS011;44322;52.968;5.816;2023-12-20T10:10:22;16.05;;;3.60;;
58528;SDS011;44322;52.968;5.816;2023-12-20T10:13:07;14.48;;;3.42;;
58528;SDS011;44322;52.968;5.816;2023-12-20T10:15:34;12.82;;;2.90;;
58528;SDS011;44322;52.968;5.816;2023-12-20T10:18:03;9.32;;;2.80;;
58528;SDS011;44322;52.968;5.816;2023-12-20T10:20:30;12.95;;;3.22;;
58528;SDS011;44322;52.968;5.816;2023-12-20T10:22:56;10.05;;;2.67;;
58528;SDS011;44322;52.968;5.816;2023-12-20T10:25:23;11.85;;;2.35;;
58528;SDS011;44322;52.968;5.816;2023-12-20T10:27:49;11.02;;;2.40;;
58528;SDS011;44322;52.968;5.816;2023-12-20T10:30:16;10.13;;;2.65;;
58528;SDS011;44322;52.968;5.816;2023-12-20T10:32:42;10.98;;;2.05;;
58528;SDS011;44322;52.968;5.816;2023-12-20T10:35:08;12.30;;;2.38;;
58528;SDS011;44322;52.968;5.816;2023-12-20T10:37:37;10.25;;;2.50;;
58528;SDS011;44322;52.968;5.816;2023-12-20T10:40:03;13.13;;;2.38;;
58528;SDS011;44322;52.968;5.816;2023-12-20T10:42:31;16.67;;;2.90;;
58528;SDS011;44322;52.968;5.816;2023-12-20T10:44:58;14.60;;;3.05;;
58528;SDS011;44322;52.968;5.816;2023-12-20T10:47:24;12.60;;;2.35;;
58528;SDS011;44322;52.968;5.816;2023-12-20T10:49:51;10.18;;;2.50;;
58528;SDS011;44322;52.968;5.816;2023-12-20T10:52:17;14.45;;;5.20;;
58528;SDS011;44322;52.968;5.816;2023-12-20T10:54:44;16.70;;;5.82;;
58528;SDS011;44322;52.968;5.816;2023-12-20T10:57:10;13.20;;;3.20;;
58528;SDS011;44322;52.968;5.816;2023-12-20T10:59:37;13.48;;;3.63;;
58528;SDS011;44322;52.968;5.816;2023-12-20T11:02:14;13.20;;;6.15;;
58528;SDS011;44322;52.968;5.816;2023-12-20T11:07:43;16.95;;;5.07;;
58528;SDS011;44322;52.968;5.816;2023-12-20T11:10:25;10.73;;;4.00;;
58528;SDS011;44322;52.968;5.816;2023-12-20T11:14:00;18.15;;;4.40;;
58528;SDS011;44322;52.968;5.816;2023-12-20T11:16:07;23.40;;;6.72;;
58528;SDS011;44322;52.968;5.816;2023-12-20T11:18:33;12.80;;;3.05;;
58528;SDS011;44322;52.968;5.816;2023-12-20T11:21:02;24.58;;;6.00;;
58528;SDS011;44322;52.968;5.816;2023-12-20T11:23:30;16.90;;;4.85;;
58528;SDS011;44322;52.968;5.816;2023-12-20T11:25:59;14.55;;;3.83;;
58528;SDS011;44322;52.968;5.816;2023-12-20T11:28:25;15.18;;;3.33;;
58528;SDS011;44322;52.968;5.816;2023-12-20T11:30:55;15.30;;;3.47;;
58528;SDS011;44322;52.968;5.816;2023-12-20T11:33:25;15.20;;;3.83;;
58528;SDS011;44322;52.968;5.816;2023-12-20T11:35:52;15.13;;;3.55;;
58528;SDS011;44322;52.968;5.816;2023-12-20T11:38:21;13.57;;;4.15;;
58528;SDS011;44322;52.968;5.816;2023-12-20T11:40:50;14.80;;;3.60;;
58528;SDS011;44322;52.968;5.816;2023-12-20T11:43:32;16.00;;;3.15;;
58528;SDS011;44322;52.968;5.816;2023-12-20T11:46:07;13.80;;;2.92;;
58528;SDS011;44322;52.968;5.816;2023-12-20T11:48:34;14.38;;;3.20;;
58528;SDS011;44322;52.968;5.816;2023-12-20T11:51:02;17.65;;;2.70;;
58528;SDS011;44322;52.968;5.816;2023-12-20T11:53:29;12.82;;;3.15;;
58528;SDS011;44322;52.968;5.816;2023-12-20T11:55:56;11.50;;;2.53;;
58528;SDS011;44322;52.968;5.816;2023-12-20T11:58:22;13.05;;;2.72;;
58528;SDS011;44322;52.968;5.816;2023-12-20T12:00:49;10.90;;;2.08;;
58528;SDS011;44322;52.968;5.816;2023-12-20T12:03:15;14.43;;;2.72;;
58528;SDS011;44322;52.968;5.816;2023-12-20T12:05:41;12.13;;;3.15;;
58528;SDS011;44322;52.968;5.816;2023-12-20T12:08:06;15.57;;;3.20;;
58528;SDS011;44322;52.968;5.816;2023-12-20T12:10:33;12.63;;;2.83;;
58528;SDS011;44322;52.968;5.816;2023-12-20T12:12:59;11.52;;;2.65;;
58528;SDS011;44322;52.968;5.816;2023-12-20T12:15:25;12.68;;;2.58;;
58528;SDS011;44322;52.968;5.816;2023-12-20T12:17:54;13.20;;;2.58;;
58528;SDS011;44322;52.968;5.816;2023-12-20T12:20:21;12.55;;;2.60;;
58528;SDS011;44322;52.968;5.816;2023-12-20T12:22:56;11.38;;;2.40;;
58528;SDS011;44322;52.968;5.816;2023-12-20T12:25:26;10.40;;;2.75;;
58528;SDS011;44322;52.968;5.816;2023-12-20T12:27:52;12.40;;;3.15;;
58528;SDS011;44322;52.968;5.816;2023-12-20T12:30:18;12.98;;;2.53;;
58528;SDS011;44322;52.968;5.816;2023-12-20T12:32:44;11.50;;;2.28;;
58528;SDS011;44322;52.968;5.816;2023-12-20T12:35:10;12.77;;;2.38;;
58528;SDS011;44322;52.968;5.816;2023-12-20T12:37:37;13.27;;;2.28;;
58528;SDS011;44322;52.968;5.816;2023-12-20T12:40:04;8.80;;;2.22;;
58528;SDS011;44322;52.968;5.816;2023-12-20T12:42:40;12.23;;;2.53;;
58528;SDS011;44322;52.968;5.816;2023-12-20T12:45:06;10.57;;;2.38;;
58528;SDS011;44322;52.968;5.816;2023-12-20T12:47:33;11.15;;;2.20;;
58528;SDS011;44322;52.968;5.816;2023-12-20T12:49:59;10.38;;;2.10;;
58528;SDS011;44322;52.968;5.816;2023-12-20T12:52:25;9.40;;;2.22;;
58528;SDS011;44322;52.968;5.816;2023-12-20T12:54:51;10.02;;;2.17;;
58528;SDS011;44322;52.968;5.816;2023-12-20T12:57:18;10.45;;;2.22;;
58528;SDS011;44322;52.968;5.816;2023-12-20T12:59:44;9.63;;;2.25;;
58528;SDS011;44322;52.968;5.816;2023-12-20T13:02:13;8.02;;;2.08;;
58528;SDS011;44322;52.968;5.816;2023-12-20T13:04:40;6.50;;;1.90;;
58528;SDS011;44322;52.968;5.816;2023-12-20T13:07:06;5.97;;;1.80;;
58528;SDS011;44322;52.968;5.816;2023-12-20T13:09:32;8.45;;;1.80;;
58528;SDS011;44322;52.968;5.816;2023-12-20T13:11:58;9.18;;;2.70;;
58528;SDS011;44322;52.968;5.816;2023-12-20T13:14:24;9.85;;;2.13;;
58528;SDS011;44322;52.968;5.816;2023-12-20T13:16:50;6.88;;;1.60;;
58528;SDS011;44322;52.968;5.816;2023-12-20T13:19:16;14.93;;;2.78;;
58528;SDS011;44322;52.968;5.816;2023-12-20T13:21:41;7.85;;;1.80;;
58528;SDS011;44322;52.968;5.816;2023-12-20T13:24:07;9.60;;;2.17;;
58528;SDS011;44322;52.968;5.816;2023-12-20T13:26:33;8.02;;;1.90;;
58528;SDS011;44322;52.968;5.816;2023-12-20T13:28:58;7.03;;;2.55;;
58528;SDS011;44322;52.968;5.816;2023-12-20T13:31:24;9.18;;;2.03;;
58528;SDS011;44322;52.968;5.816;2023-12-20T13:33:50;8.27;;;1.90;;
58528;SDS011;44322;52.968;5.816;2023-12-20T13:36:17;3.97;;;1.30;;
58528;SDS011;44322;52.968;5.816;2023-12-20T13:38:43;4.07;;;1.40;;
58528;SDS011;44322;52.968;5.816;2023-12-20T13:41:09;7.65;;;1.63;;
58528;SDS011;44322;52.968;5.816;2023-12-20T13:43:34;7.72;;;1.50;;
58528;SDS011;44322;52.968;5.816;2023-12-20T13:46:00;9.60;;;2.05;;
58528;SDS011;44322;52.968;5.816;2023-12-20T13:48:26;8.98;;;2.10;;
58528;SDS011;44322;52.968;5.816;2023-12-20T13:50:51;9.57;;;2.70;;
58528;SDS011;44322;52.968;5.816;2023-12-20T13:53:17;8.70;;;2.20;;
58528;SDS011;44322;52.968;5.816;2023-12-20T13:55:42;10.52;;;1.90;;
58528;SDS011;44322;52.968;5.816;2023-12-20T13:58:08;10.70;;;2.33;;
58528;SDS011;44322;52.968;5.816;2023-12-20T14:00:35;7.80;;;2.28;;
58528;SDS011;44322;52.968;5.816;2023-12-20T14:03:02;9.77;;;2.35;;
58528;SDS011;44322;52.968;5.816;2023-12-20T14:05:29;10.27;;;2.33;;
58528;SDS011;44322;52.968;5.816;2023-12-20T14:07:55;14.85;;;3.85;;
58528;SDS011;44322;52.968;5.816;2023-12-20T14:10:23;17.48;;;4.20;;
58528;SDS011;44322;52.968;5.816;2023-12-20T14:12:48;11.75;;;3.55;;
58528;SDS011;44322;52.968;5.816;2023-12-20T14:15:14;15.52;;;2.85;;
58528;SDS011;44322;52.968;5.816;2023-12-20T14:17:40;12.70;;;3.47;;
58528;SDS011;44322;52.968;5.816;2023-12-20T14:20:07;14.50;;;3.77;;
58528;SDS011;44322;52.968;5.816;2023-12-20T14:22:33;20.40;;;4.75;;
58528;SDS011;44322;52.968;5.816;2023-12-20T14:24:59;22.23;;;5.18;;
58528;SDS011;44322;52.968;5.816;2023-12-20T14:27:25;21.77;;;4.57;;
58528;SDS011;44322;52.968;5.816;2023-12-20T14:29:53;20.17;;;4.35;;
58528;SDS011;44322;52.968;5.816;2023-12-20T14:32:19;23.27;;;4.32;;
58528;SDS011;44322;52.968;5.816;2023-12-20T14:34:45;20.10;;;4.35;;
58528;SDS011;44322;52.968;5.816;2023-12-20T14:37:11;21.60;;;4.60;;
58528;SDS011;44322;52.968;5.816;2023-12-20T14:39:37;23.08;;;4.50;;